sensor_id;sensor_type;location;lat;lon;timestamp;temperature;humidity
5802;DHT22;2927;49.366;8.530;2023-04-01T00:02:06;9.90;1.00
5802;DHT22;2927;49.366;8.530;2023-04-01T00:04:31;9.80;1.00
5802;DHT22;2927;49.366;8.530;2023-04-01T00:06:58;9.80;1.00
5802;DHT22;2927;49.366;8.530;2023-04-01T00:09:23;9.80;1.00
5802;DHT22;2927;49.366;8.530;2023-04-01T00:11:49;9.80;1.00
5802;DHT22;2927;49.366;8.530;2023-04-01T00:14:14;9.70;1.00
5802;DHT22;2927;49.366;8.530;2023-04-01T00:16:40;9.80;1.00
5802;DHT22;2927;49.366;8.530;2023-04-01T00:19:05;9.80;1.00
5802;DHT22;2927;49.366;8.530;2023-04-01T00:21:31;9.80;1.00
5802;DHT22;2927;49.366;8.530;2023-04-01T00:23:56;9.70;1.00
5802;DHT22;2927;49.366;8.530;2023-04-01T00:26:23;9.70;1.00
5802;DHT22;2927;49.366;8.530;2023-04-01T00:28:50;9.70;1.00
5802;DHT22;2927;49.366;8.530;2023-04-01T00:31:15;9.70;1.00
5802;DHT22;2927;49.366;8.530;2023-04-01T00:33:41;9.70;1.00
5802;DHT22;2927;49.366;8.530;2023-04-01T00:36:11;9.70;1.00
5802;DHT22;2927;49.366;8.530;2023-04-01T00:38:38;9.70;1.00
5802;DHT22;2927;49.366;8.530;2023-04-01T00:41:04;9.70;1.00
5802;DHT22;2927;49.366;8.530;2023-04-01T00:43:30;9.60;1.00
5802;DHT22;2927;49.366;8.530;2023-04-01T00:45:56;9.70;1.00
5802;DHT22;2927;49.366;8.530;2023-04-01T00:48:25;9.70;1.00
5802;DHT22;2927;49.366;8.530;2023-04-01T00:50:56;9.70;1.00
5802;DHT22;2927;49.366;8.530;2023-04-01T00:53:23;9.70;1.00
5802;DHT22;2927;49.366;8.530;2023-04-01T00:55:59;9.80;1.00
5802;DHT22;2927;49.366;8.530;2023-04-01T00:58:28;9.80;1.00
5802;DHT22;2927;49.366;8.530;2023-04-01T01:00:55;9.70;1.00
5802;DHT22;2927;49.366;8.530;2023-04-01T01:03:21;9.70;1.00
5802;DHT22;2927;49.366;8.530;2023-04-01T01:11:25;9.70;1.00
5802;DHT22;2927;49.366;8.530;2023-04-01T01:14:19;9.70;1.00
5802;DHT22;2927;49.366;8.530;2023-04-01T01:16:58;9.70;1.00
5802;DHT22;2927;49.366;8.530;2023-04-01T01:25:19;9.70;1.00
5802;DHT22;2927;49.366;8.530;2023-04-01T01:31:00;9.70;1.00
5802;DHT22;2927;49.366;8.530;2023-04-01T01:36:19;9.80;1.00
5802;DHT22;2927;49.366;8.530;2023-04-01T01:38:48;9.70;1.00
5802;DHT22;2927;49.366;8.530;2023-04-01T01:41:16;9.80;1.00
5802;DHT22;2927;49.366;8.530;2023-04-01T01:43:46;9.80;1.00
5802;DHT22;2927;49.366;8.530;2023-04-01T01:46:16;9.80;1.00
5802;DHT22;2927;49.366;8.530;2023-04-01T01:48:43;9.80;1.00
5802;DHT22;2927;49.366;8.530;2023-04-01T01:51:10;9.80;1.00
5802;DHT22;2927;49.366;8.530;2023-04-01T01:53:35;9.80;1.00
5802;DHT22;2927;49.366;8.530;2023-04-01T01:56:02;9.80;1.00
5802;DHT22;2927;49.366;8.530;2023-04-01T02:01:14;9.90;1.00
5802;DHT22;2927;49.366;8.530;2023-04-01T02:03:42;9.80;1.00
5802;DHT22;2927;49.366;8.530;2023-04-01T02:06:11;9.80;1.00
5802;DHT22;2927;49.366;8.530;2023-04-01T02:11:12;9.90;1.00
5802;DHT22;2927;49.366;8.530;2023-04-01T02:13:54;9.90;1.00
5802;DHT22;2927;49.366;8.530;2023-04-01T02:16:27;9.90;1.00
5802;DHT22;2927;49.366;8.530;2023-04-01T02:18:55;10.00;1.00
5802;DHT22;2927;49.366;8.530;2023-04-01T02:21:24;10.00;1.00
5802;DHT22;2927;49.366;8.530;2023-04-01T02:23:52;10.00;1.00
5802;DHT22;2927;49.366;8.530;2023-04-01T02:26:18;10.00;1.00
5802;DHT22;2927;49.366;8.530;2023-04-01T02:28:46;9.90;1.00
5802;DHT22;2927;49.366;8.530;2023-04-01T02:31:14;9.90;1.00
5802;DHT22;2927;49.366;8.530;2023-04-01T02:33:40;9.90;1.00
5802;DHT22;2927;49.366;8.530;2023-04-01T02:36:09;10.00;1.00
5802;DHT22;2927;49.366;8.530;2023-04-01T02:38:35;9.90;1.00
5802;DHT22;2927;49.366;8.530;2023-04-01T02:41:02;9.90;1.00
5802;DHT22;2927;49.366;8.530;2023-04-01T02:43:28;9.90;1.00
5802;DHT22;2927;49.366;8.530;2023-04-01T02:45:54;9.90;1.00
5802;DHT22;2927;49.366;8.530;2023-04-01T02:48:20;9.90;1.00
5802;DHT22;2927;49.366;8.530;2023-04-01T02:50:45;9.90;1.00
5802;DHT22;2927;49.366;8.530;2023-04-01T02:53:11;9.80;1.00
5802;DHT22;2927;49.366;8.530;2023-04-01T02:55:37;9.90;1.00
5802;DHT22;2927;49.366;8.530;2023-04-01T02:58:02;9.90;1.00
5802;DHT22;2927;49.366;8.530;2023-04-01T03:00:28;9.90;1.00
5802;DHT22;2927;49.366;8.530;2023-04-01T03:02:54;9.90;1.00
5802;DHT22;2927;49.366;8.530;2023-04-01T03:05:20;9.90;1.00
5802;DHT22;2927;49.366;8.530;2023-04-01T03:07:45;9.90;1.00
5802;DHT22;2927;49.366;8.530;2023-04-01T03:10:11;9.90;1.00
5802;DHT22;2927;49.366;8.530;2023-04-01T03:12:36;9.90;1.00
5802;DHT22;2927;49.366;8.530;2023-04-01T03:15:02;9.90;1.00
5802;DHT22;2927;49.366;8.530;2023-04-01T03:17:28;9.90;1.00
5802;DHT22;2927;49.366;8.530;2023-04-01T03:19:54;9.90;1.00
5802;DHT22;2927;49.366;8.530;2023-04-01T03:22:19;9.90;1.00
5802;DHT22;2927;49.366;8.530;2023-04-01T03:24:47;9.90;1.00
5802;DHT22;2927;49.366;8.530;2023-04-01T03:27:13;9.90;1.00
5802;DHT22;2927;49.366;8.530;2023-04-01T03:29:38;9.90;1.00
5802;DHT22;2927;49.366;8.530;2023-04-01T03:32:04;9.90;1.00
5802;DHT22;2927;49.366;8.530;2023-04-01T03:34:30;9.90;1.00
5802;DHT22;2927;49.366;8.530;2023-04-01T03:36:56;9.90;1.00
5802;DHT22;2927;49.366;8.530;2023-04-01T03:39:22;9.90;1.00
5802;DHT22;2927;49.366;8.530;2023-04-01T03:41:48;9.90;1.00
5802;DHT22;2927;49.366;8.530;2023-04-01T03:44:14;9.90;1.00
5802;DHT22;2927;49.366;8.530;2023-04-01T03:46:39;9.90;1.00
5802;DHT22;2927;49.366;8.530;2023-04-01T03:49:09;10.00;1.00
5802;DHT22;2927;49.366;8.530;2023-04-01T03:51:38;9.90;1.00
5802;DHT22;2927;49.366;8.530;2023-04-01T03:54:04;9.90;1.00
5802;DHT22;2927;49.366;8.530;2023-04-01T03:56:30;9.90;1.00
5802;DHT22;2927;49.366;8.530;2023-04-01T03:58:55;9.90;1.00
5802;DHT22;2927;49.366;8.530;2023-04-01T04:01:21;9.90;1.00
5802;DHT22;2927;49.366;8.530;2023-04-01T04:03:47;9.90;1.00
5802;DHT22;2927;49.366;8.530;2023-04-01T04:06:15;9.90;1.00
5802;DHT22;2927;49.366;8.530;2023-04-01T04:08:41;9.90;1.00
5802;DHT22;2927;49.366;8.530;2023-04-01T04:11:07;9.90;1.00
5802;DHT22;2927;49.366;8.530;2023-04-01T04:13:33;9.90;1.00
5802;DHT22;2927;49.366;8.530;2023-04-01T04:15:58;9.90;1.00
5802;DHT22;2927;49.366;8.530;2023-04-01T04:18:24;9.90;1.00
5802;DHT22;2927;49.366;8.530;2023-04-01T04:20:50;9.90;1.00
5802;DHT22;2927;49.366;8.530;2023-04-01T04:23:17;9.90;1.00
5802;DHT22;2927;49.366;8.530;2023-04-01T04:25:57;9.90;1.00
5802;DHT22;2927;49.366;8.530;2023-04-01T04:28:23;9.80;1.00
5802;DHT22;2927;49.366;8.530;2023-04-01T04:30:48;9.80;1.00
5802;DHT22;2927;49.366;8.530;2023-04-01T04:33:14;9.70;1.00
5802;DHT22;2927;49.366;8.530;2023-04-01T04:35:40;9.70;1.00
5802;DHT22;2927;49.366;8.530;2023-04-01T04:38:05;9.70;1.00
5802;DHT22;2927;49.366;8.530;2023-04-01T04:40:31;9.60;1.00
5802;DHT22;2927;49.366;8.530;2023-04-01T04:42:56;9.50;1.00
5802;DHT22;2927;49.366;8.530;2023-04-01T04:45:22;9.50;1.00
5802;DHT22;2927;49.366;8.530;2023-04-01T04:47:47;9.40;18.30
5802;DHT22;2927;49.366;8.530;2023-04-01T04:50:13;9.30;62.00
5802;DHT22;2927;49.366;8.530;2023-04-01T04:52:38;9.30;70.30
5802;DHT22;2927;49.366;8.530;2023-04-01T04:55:04;9.20;99.90
5802;DHT22;2927;49.366;8.530;2023-04-01T04:57:30;9.20;99.90
5802;DHT22;2927;49.366;8.530;2023-04-01T04:59:55;9.10;99.90
5802;DHT22;2927;49.366;8.530;2023-04-01T05:02:21;9.10;99.90
5802;DHT22;2927;49.366;8.530;2023-04-01T05:04:46;9.10;99.90
5802;DHT22;2927;49.366;8.530;2023-04-01T05:07:12;9.10;99.90
5802;DHT22;2927;49.366;8.530;2023-04-01T05:09:38;9.10;99.90
5802;DHT22;2927;49.366;8.530;2023-04-01T05:12:03;9.00;99.90
5802;DHT22;2927;49.366;8.530;2023-04-01T05:14:29;9.00;99.90
5802;DHT22;2927;49.366;8.530;2023-04-01T05:16:55;9.10;99.90
5802;DHT22;2927;49.366;8.530;2023-04-01T05:19:20;9.10;99.90
5802;DHT22;2927;49.366;8.530;2023-04-01T05:21:46;9.10;99.90
5802;DHT22;2927;49.366;8.530;2023-04-01T05:24:12;9.10;99.90
5802;DHT22;2927;49.366;8.530;2023-04-01T05:26:37;9.20;97.80
5802;DHT22;2927;49.366;8.530;2023-04-01T05:29:04;9.20;99.90
5802;DHT22;2927;49.366;8.530;2023-04-01T05:31:30;9.20;91.10
5802;DHT22;2927;49.366;8.530;2023-04-01T05:33:55;9.30;46.70
5802;DHT22;2927;49.366;8.530;2023-04-01T05:36:21;9.30;43.20
5802;DHT22;2927;49.366;8.530;2023-04-01T05:38:47;9.40;19.80
5802;DHT22;2927;49.366;8.530;2023-04-01T05:41:13;9.40;1.00
5802;DHT22;2927;49.366;8.530;2023-04-01T05:43:40;9.40;1.00
5802;DHT22;2927;49.366;8.530;2023-04-01T05:46:06;9.50;1.00
5802;DHT22;2927;49.366;8.530;2023-04-01T05:48:33;9.50;1.00
5802;DHT22;2927;49.366;8.530;2023-04-01T05:51:00;9.50;1.00
5802;DHT22;2927;49.366;8.530;2023-04-01T05:53:26;9.50;1.00
5802;DHT22;2927;49.366;8.530;2023-04-01T05:55:51;9.50;1.00
5802;DHT22;2927;49.366;8.530;2023-04-01T05:58:17;9.50;1.00
5802;DHT22;2927;49.366;8.530;2023-04-01T06:00:43;9.50;1.00
5802;DHT22;2927;49.366;8.530;2023-04-01T06:03:08;9.50;1.00
5802;DHT22;2927;49.366;8.530;2023-04-01T06:05:40;9.50;1.00
5802;DHT22;2927;49.366;8.530;2023-04-01T06:08:11;9.60;1.00
5802;DHT22;2927;49.366;8.530;2023-04-01T06:10:53;9.60;1.00
5802;DHT22;2927;49.366;8.530;2023-04-01T06:16:39;9.70;1.00
5802;DHT22;2927;49.366;8.530;2023-04-01T06:19:32;9.70;1.00
5802;DHT22;2927;49.366;8.530;2023-04-01T06:24:51;9.70;1.00
5802;DHT22;2927;49.366;8.530;2023-04-01T06:44:32;9.70;11.10
5802;DHT22;2927;49.366;8.530;2023-04-01T06:47:18;9.70;10.70
5802;DHT22;2927;49.366;8.530;2023-04-01T06:49:55;9.70;1.00
5802;DHT22;2927;49.366;8.530;2023-04-01T06:52:47;9.80;1.00
5802;DHT22;2927;49.366;8.530;2023-04-01T06:57:48;9.80;1.00
5802;DHT22;2927;49.366;8.530;2023-04-01T07:00:36;9.80;1.00
5802;DHT22;2927;49.366;8.530;2023-04-01T07:06:00;9.80;1.00
5802;DHT22;2927;49.366;8.530;2023-04-01T07:08:28;9.80;1.00
5802;DHT22;2927;49.366;8.530;2023-04-01T07:10:56;9.70;1.00
5802;DHT22;2927;49.366;8.530;2023-04-01T07:13:32;9.70;1.00
5802;DHT22;2927;49.366;8.530;2023-04-01T07:16:11;9.70;30.50
5802;DHT22;2927;49.366;8.530;2023-04-01T07:24:40;9.70;90.40
5802;DHT22;2927;49.366;8.530;2023-04-01T07:27:13;9.60;99.90
5802;DHT22;2927;49.366;8.530;2023-04-01T07:29:39;9.50;99.90
5802;DHT22;2927;49.366;8.530;2023-04-01T07:32:12;9.50;99.90
5802;DHT22;2927;49.366;8.530;2023-04-01T07:35:13;9.50;99.90
5802;DHT22;2927;49.366;8.530;2023-04-01T07:37:52;9.40;99.90
5802;DHT22;2927;49.366;8.530;2023-04-01T07:51:27;9.50;99.90
5802;DHT22;2927;49.366;8.530;2023-04-01T07:56:55;9.60;99.90
5802;DHT22;2927;49.366;8.530;2023-04-01T08:07:25;9.70;99.90
5802;DHT22;2927;49.366;8.530;2023-04-01T08:10:01;9.70;99.90
5802;DHT22;2927;49.366;8.530;2023-04-01T08:15:41;9.90;99.90
5802;DHT22;2927;49.366;8.530;2023-04-01T08:20:51;9.90;99.90
5802;DHT22;2927;49.366;8.530;2023-04-01T08:23:28;10.00;99.90
5802;DHT22;2927;49.366;8.530;2023-04-01T08:29:15;10.30;99.90
5802;DHT22;2927;49.366;8.530;2023-04-01T08:34:39;10.60;99.90
5802;DHT22;2927;49.366;8.530;2023-04-01T08:37:11;10.50;99.90
5802;DHT22;2927;49.366;8.530;2023-04-01T08:39:47;10.50;99.90
5802;DHT22;2927;49.366;8.530;2023-04-01T08:48:47;10.10;99.90
5802;DHT22;2927;49.366;8.530;2023-04-01T08:51:50;10.10;99.90
5802;DHT22;2927;49.366;8.530;2023-04-01T08:54:39;10.00;99.90
5802;DHT22;2927;49.366;8.530;2023-04-01T09:00:38;9.90;99.90
5802;DHT22;2927;49.366;8.530;2023-04-01T09:14:24;10.20;99.90
5802;DHT22;2927;49.366;8.530;2023-04-01T09:17:33;10.40;99.90
5802;DHT22;2927;49.366;8.530;2023-04-01T09:20:40;10.60;99.90
5802;DHT22;2927;49.366;8.530;2023-04-01T09:26:18;10.50;99.90
5802;DHT22;2927;49.366;8.530;2023-04-01T09:31:47;10.50;99.90
5802;DHT22;2927;49.366;8.530;2023-04-01T09:34:54;10.50;99.90
5802;DHT22;2927;49.366;8.530;2023-04-01T09:40:14;10.40;99.90
5802;DHT22;2927;49.366;8.530;2023-04-01T09:43:02;10.30;99.90
5802;DHT22;2927;49.366;8.530;2023-04-01T09:46:04;10.40;99.90
5802;DHT22;2927;49.366;8.530;2023-04-01T09:48:53;10.40;99.90
5802;DHT22;2927;49.366;8.530;2023-04-01T09:59:47;10.50;99.90
5802;DHT22;2927;49.366;8.530;2023-04-01T10:18:12;10.80;99.90
5802;DHT22;2927;49.366;8.530;2023-04-01T10:21:14;10.90;99.90
5802;DHT22;2927;49.366;8.530;2023-04-01T10:24:07;10.90;99.90
5802;DHT22;2927;49.366;8.530;2023-04-01T10:43:46;10.90;99.90
5802;DHT22;2927;49.366;8.530;2023-04-01T10:52:21;11.10;99.90
5802;DHT22;2927;49.366;8.530;2023-04-01T10:58:26;11.10;99.90
5802;DHT22;2927;49.366;8.530;2023-04-01T11:04:33;11.00;99.90
5802;DHT22;2927;49.366;8.530;2023-04-01T11:13:49;10.90;99.90
5802;DHT22;2927;49.366;8.530;2023-04-01T11:39:00;10.80;99.90
5802;DHT22;2927;49.366;8.530;2023-04-01T11:55:23;11.10;99.90
5802;DHT22;2927;49.366;8.530;2023-04-01T12:06:49;11.30;99.90
5802;DHT22;2927;49.366;8.530;2023-04-01T12:10:10;11.40;99.90
5802;DHT22;2927;49.366;8.530;2023-04-01T12:14:47;11.40;99.90
5802;DHT22;2927;49.366;8.530;2023-04-01T12:23:22;11.40;99.90
5802;DHT22;2927;49.366;8.530;2023-04-01T12:26:24;11.40;99.90
5802;DHT22;2927;49.366;8.530;2023-04-01T12:31:38;11.50;65.20
5802;DHT22;2927;49.366;8.530;2023-04-01T12:34:48;11.40;39.90
5802;DHT22;2927;49.366;8.530;2023-04-01T12:37:43;11.50;44.50
5802;DHT22;2927;49.366;8.530;2023-04-01T12:46:01;11.50;54.80
5802;DHT22;2927;49.366;8.530;2023-04-01T12:54:18;11.70;1.00
5802;DHT22;2927;49.366;8.530;2023-04-01T13:03:12;11.90;1.00
5802;DHT22;2927;49.366;8.530;2023-04-01T13:10:50;12.20;1.00
5802;DHT22;2927;49.366;8.530;2023-04-01T13:19:31;12.10;1.00
5802;DHT22;2927;49.366;8.530;2023-04-01T13:24:52;12.10;1.00
5802;DHT22;2927;49.366;8.530;2023-04-01T13:27:44;12.20;1.00
5802;DHT22;2927;49.366;8.530;2023-04-01T13:30:27;12.10;1.00
5802;DHT22;2927;49.366;8.530;2023-04-01T13:41:20;12.10;1.00
5802;DHT22;2927;49.366;8.530;2023-04-01T13:44:00;12.20;1.00
5802;DHT22;2927;49.366;8.530;2023-04-01T14:00:20;12.50;1.00
5802;DHT22;2927;49.366;8.530;2023-04-01T14:06:28;12.60;1.00
5802;DHT22;2927;49.366;8.530;2023-04-01T14:08:45;12.50;99.90
5802;DHT22;2927;49.366;8.530;2023-04-01T14:11:39;12.40;1.00
5802;DHT22;2927;49.366;8.530;2023-04-01T14:17:24;12.30;1.00
5802;DHT22;2927;49.366;8.530;2023-04-01T14:31:34;12.00;1.00
5802;DHT22;2927;49.366;8.530;2023-04-01T14:34:34;11.90;1.00
5802;DHT22;2927;49.366;8.530;2023-04-01T14:37:39;11.80;1.00
5802;DHT22;2927;49.366;8.530;2023-04-01T14:40:20;11.80;99.90
5802;DHT22;2927;49.366;8.530;2023-04-01T14:48:48;11.80;1.00
5802;DHT22;2927;49.366;8.530;2023-04-01T14:51:35;11.80;99.90
5802;DHT22;2927;49.366;8.530;2023-04-01T14:54:20;11.80;99.90
5802;DHT22;2927;49.366;8.530;2023-04-01T14:57:09;11.80;99.90
5802;DHT22;2927;49.366;8.530;2023-04-01T14:59:40;11.80;99.90
5802;DHT22;2927;49.366;8.530;2023-04-01T15:02:45;11.80;1.00
5802;DHT22;2927;49.366;8.530;2023-04-01T15:08:09;11.70;1.00
5802;DHT22;2927;49.366;8.530;2023-04-01T15:10:44;11.60;1.00
5802;DHT22;2927;49.366;8.530;2023-04-01T15:24:07;11.50;1.00
5802;DHT22;2927;49.366;8.530;2023-04-01T15:29:46;11.40;1.00
5802;DHT22;2927;49.366;8.530;2023-04-01T15:32:19;11.40;1.00
5802;DHT22;2927;49.366;8.530;2023-04-01T15:35:24;11.50;1.00
5802;DHT22;2927;49.366;8.530;2023-04-01T15:38:03;11.50;1.00
5802;DHT22;2927;49.366;8.530;2023-04-01T15:40:37;11.60;1.00
5802;DHT22;2927;49.366;8.530;2023-04-01T15:43:44;11.60;1.00
5802;DHT22;2927;49.366;8.530;2023-04-01T15:49:39;11.60;1.00
5802;DHT22;2927;49.366;8.530;2023-04-01T15:52:22;11.60;1.00
5802;DHT22;2927;49.366;8.530;2023-04-01T16:06:27;11.60;1.00
5802;DHT22;2927;49.366;8.530;2023-04-01T16:23:30;11.70;1.00
5802;DHT22;2927;49.366;8.530;2023-04-01T16:26:20;11.70;1.00
5802;DHT22;2927;49.366;8.530;2023-04-01T16:34:19;11.60;1.00
5802;DHT22;2927;49.366;8.530;2023-04-01T16:37:17;11.60;1.00
5802;DHT22;2927;49.366;8.530;2023-04-01T16:39:53;11.50;1.00
5802;DHT22;2927;49.366;8.530;2023-04-01T16:42:50;11.50;1.00
5802;DHT22;2927;49.366;8.530;2023-04-01T16:48:13;11.40;1.00
5802;DHT22;2927;49.366;8.530;2023-04-01T16:53:41;11.40;1.00
5802;DHT22;2927;49.366;8.530;2023-04-01T16:58:54;11.30;1.00
5802;DHT22;2927;49.366;8.530;2023-04-01T17:07:40;11.20;1.00
5802;DHT22;2927;49.366;8.530;2023-04-01T17:13:06;11.10;1.00
5802;DHT22;2927;49.366;8.530;2023-04-01T17:18:50;11.10;1.00
5802;DHT22;2927;49.366;8.530;2023-04-01T17:22:07;11.00;1.00
5802;DHT22;2927;49.366;8.530;2023-04-01T17:27:51;11.00;1.00
5802;DHT22;2927;49.366;8.530;2023-04-01T17:30:39;11.00;1.00
5802;DHT22;2927;49.366;8.530;2023-04-01T17:44:16;10.90;1.00
5802;DHT22;2927;49.366;8.530;2023-04-01T17:49:23;10.80;1.00
5802;DHT22;2927;49.366;8.530;2023-04-01T17:55:53;10.70;1.00
5802;DHT22;2927;49.366;8.530;2023-04-01T17:58:42;10.70;1.00
5802;DHT22;2927;49.366;8.530;2023-04-01T18:04:26;10.70;99.90
5802;DHT22;2927;49.366;8.530;2023-04-01T18:20:43;10.50;1.00
5802;DHT22;2927;49.366;8.530;2023-04-01T18:25:52;10.40;1.00
5802;DHT22;2927;49.366;8.530;2023-04-01T18:28:30;10.50;1.00
5802;DHT22;2927;49.366;8.530;2023-04-01T18:33:36;10.40;1.00
5802;DHT22;2927;49.366;8.530;2023-04-01T18:38:57;10.40;1.00
5802;DHT22;2927;49.366;8.530;2023-04-01T18:52:42;10.10;99.90
5802;DHT22;2927;49.366;8.530;2023-04-01T18:58:25;9.90;99.90
5802;DHT22;2927;49.366;8.530;2023-04-01T19:01:25;9.90;99.90
5802;DHT22;2927;49.366;8.530;2023-04-01T19:06:50;9.80;99.90
5802;DHT22;2927;49.366;8.530;2023-04-01T19:14:24;9.80;99.90
5802;DHT22;2927;49.366;8.530;2023-04-01T19:30:02;9.80;99.90
5802;DHT22;2927;49.366;8.530;2023-04-01T19:40:42;9.70;99.90
5802;DHT22;2927;49.366;8.530;2023-04-01T19:43:21;9.70;99.90
5802;DHT22;2927;49.366;8.530;2023-04-01T19:52:40;9.70;99.90
5802;DHT22;2927;49.366;8.530;2023-04-01T20:00:36;9.60;99.90
5802;DHT22;2927;49.366;8.530;2023-04-01T20:03:38;9.60;99.90
5802;DHT22;2927;49.366;8.530;2023-04-01T20:06:32;9.70;99.90
5802;DHT22;2927;49.366;8.530;2023-04-01T20:11:38;9.70;99.90
5802;DHT22;2927;49.366;8.530;2023-04-01T20:14:32;9.70;99.90
5802;DHT22;2927;49.366;8.530;2023-04-01T20:25:30;9.60;99.90
5802;DHT22;2927;49.366;8.530;2023-04-01T20:33:51;9.50;99.90
5802;DHT22;2927;49.366;8.530;2023-04-01T20:36:36;9.50;99.90
5802;DHT22;2927;49.366;8.530;2023-04-01T20:39:31;9.50;99.90
5802;DHT22;2927;49.366;8.530;2023-04-01T20:44:55;9.40;99.90
5802;DHT22;2927;49.366;8.530;2023-04-01T20:50:28;9.40;99.90
5802;DHT22;2927;49.366;8.530;2023-04-01T20:56:02;9.40;99.90
5802;DHT22;2927;49.366;8.530;2023-04-01T20:58:43;9.40;99.90
5802;DHT22;2927;49.366;8.530;2023-04-01T21:09:37;9.40;99.90
5802;DHT22;2927;49.366;8.530;2023-04-01T21:15:27;9.40;99.90
5802;DHT22;2927;49.366;8.530;2023-04-01T21:35:29;9.30;99.90
5802;DHT22;2927;49.366;8.530;2023-04-01T21:38:23;9.30;99.90
5802;DHT22;2927;49.366;8.530;2023-04-01T21:41:08;9.30;99.90
5802;DHT22;2927;49.366;8.530;2023-04-01T21:50:23;9.30;99.90
5802;DHT22;2927;49.366;8.530;2023-04-01T22:07:19;9.30;99.90
5802;DHT22;2927;49.366;8.530;2023-04-01T22:12:37;9.30;99.90
5802;DHT22;2927;49.366;8.530;2023-04-01T22:15:08;9.30;99.90
5802;DHT22;2927;49.366;8.530;2023-04-01T22:17:54;9.30;99.90
5802;DHT22;2927;49.366;8.530;2023-04-01T22:20:42;9.30;99.90
5802;DHT22;2927;49.366;8.530;2023-04-01T22:23:24;9.30;99.90
5802;DHT22;2927;49.366;8.530;2023-04-01T22:26:02;9.30;99.90
5802;DHT22;2927;49.366;8.530;2023-04-01T22:28:36;9.30;99.90
5802;DHT22;2927;49.366;8.530;2023-04-01T22:31:05;9.30;99.90
5802;DHT22;2927;49.366;8.530;2023-04-01T22:34:00;9.30;99.90
5802;DHT22;2927;49.366;8.530;2023-04-01T22:39:26;9.30;99.90
5802;DHT22;2927;49.366;8.530;2023-04-01T22:56:21;9.30;99.90
5802;DHT22;2927;49.366;8.530;2023-04-01T23:01:36;9.30;99.90
5802;DHT22;2927;49.366;8.530;2023-04-01T23:04:05;9.30;99.90
5802;DHT22;2927;49.366;8.530;2023-04-01T23:06:38;9.30;99.90
5802;DHT22;2927;49.366;8.530;2023-04-01T23:09:23;9.30;99.90
5802;DHT22;2927;49.366;8.530;2023-04-01T23:11:51;9.30;99.90
5802;DHT22;2927;49.366;8.530;2023-04-01T23:20:04;9.30;99.90
5802;DHT22;2927;49.366;8.530;2023-04-01T23:27:59;9.20;99.90
5802;DHT22;2927;49.366;8.530;2023-04-01T23:30:47;9.20;99.90
5802;DHT22;2927;49.366;8.530;2023-04-01T23:35:50;9.00;99.90
5802;DHT22;2927;49.366;8.530;2023-04-01T23:38:17;9.00;99.90
5802;DHT22;2927;49.366;8.530;2023-04-01T23:40:43;8.90;99.90
5802;DHT22;2927;49.366;8.530;2023-04-01T23:43:25;8.90;99.90
5802;DHT22;2927;49.366;8.530;2023-04-01T23:45:54;8.90;99.90
5802;DHT22;2927;49.366;8.530;2023-04-01T23:48:28;8.80;99.90
5802;DHT22;2927;49.366;8.530;2023-04-01T23:50:56;8.80;99.90
5802;DHT22;2927;49.366;8.530;2023-04-01T23:53:29;8.80;99.90
5802;DHT22;2927;49.366;8.530;2023-04-01T23:55:55;8.80;99.90
5802;DHT22;2927;49.366;8.530;2023-04-01T23:58:27;8.70;99.90
